createdAt,value
2023-05-16T00:01:07.332Z,101814.88
2023-05-16T00:03:35.490Z,101826.06
2023-05-16T00:06:05.236Z,101822.25
2023-05-16T00:08:33.002Z,101825.06
2023-05-16T00:11:00.718Z,101831.84
2023-05-16T00:13:29.644Z,101829.28
2023-05-16T00:15:57.761Z,101831.19
2023-05-16T00:18:27.135Z,101834.31
2023-05-16T00:20:55.528Z,101839.06
2023-05-16T00:23:24.836Z,101837.72
2023-05-16T00:25:52.536Z,101835.22
2023-05-16T00:28:20.292Z,101828.41
2023-05-16T00:30:48.371Z,101830.22
2023-05-16T00:33:16.123Z,101832.38
2023-05-16T00:35:43.995Z,101828.53
2023-05-16T00:38:11.666Z,101827.72
2023-05-16T00:40:40.924Z,101828.06
2023-05-16T00:43:08.682Z,101822.31
2023-05-16T00:45:36.572Z,101817.88
2023-05-16T00:48:04.785Z,101828.03
2023-05-16T00:50:35.530Z,101828.69
2023-05-16T00:53:03.597Z,101830.41
2023-05-16T00:55:32.427Z,101827.03
2023-05-16T00:58:01.572Z,101828.97
2023-05-16T01:00:29.702Z,101835.16
2023-05-16T01:02:58.029Z,101830.38
2023-05-16T01:05:26.275Z,101831.34
2023-05-16T01:07:54.144Z,101824.03
2023-05-16T01:10:22.129Z,101826.47
2023-05-16T01:12:58.925Z,101822.84
2023-05-16T01:15:31.589Z,101826.47
2023-05-16T01:18:04.530Z,101826.41
2023-05-16T01:20:39.778Z,101832.81
2023-05-16T01:23:20.945Z,101830.56
2023-05-16T01:25:58.511Z,101826.06
2023-05-16T01:28:29.377Z,101828.84
2023-05-16T01:30:57.096Z,101823.69
2023-05-16T01:33:24.796Z,101824.94
2023-05-16T01:36:03.912Z,101834.84
2023-05-16T01:38:38.693Z,101843.78
2023-05-16T01:41:17.360Z,101832.25
2023-05-16T01:43:50.410Z,101834.44
2023-05-16T01:46:22.791Z,101839.56
2023-05-16T01:48:55.069Z,101841.84
2023-05-16T01:51:25.773Z,101845.53
2023-05-16T01:53:55.588Z,101844.31
2023-05-16T01:56:23.988Z,101838.72
2023-05-16T01:58:55.264Z,101855.03
2023-05-16T02:01:23.011Z,101849.50
2023-05-16T02:03:51.640Z,101849.41
2023-05-16T02:06:19.548Z,101845.09
2023-05-16T02:08:47.252Z,101845.47
2023-05-16T02:11:14.972Z,101845.25
2023-05-16T02:13:42.696Z,101843.69
2023-05-16T02:16:13.281Z,101852.25
2023-05-16T02:18:41.416Z,101850.19
2023-05-16T02:21:09.250Z,101852.91
2023-05-16T02:23:36.988Z,101848.84
2023-05-16T02:26:04.850Z,101845.53
2023-05-16T02:28:32.620Z,101843.66
2023-05-16T02:31:01.082Z,101841.59
2023-05-16T02:33:30.584Z,101842.22
2023-05-16T02:35:58.328Z,101842.84
2023-05-16T02:38:26.080Z,101846.84
2023-05-16T02:40:53.819Z,101844.59
2023-05-16T02:43:21.487Z,101845.31
2023-05-16T02:45:49.197Z,101842.81
2023-05-16T02:48:16.979Z,101848.44
2023-05-16T02:50:46.225Z,101840.44
2023-05-16T02:53:14.004Z,101835.41
2023-05-16T02:55:41.964Z,101842.28
2023-05-16T02:58:09.729Z,101838.00
2023-05-16T03:00:37.476Z,101830.41
2023-05-16T03:03:06.145Z,101835.91
2023-05-16T03:05:33.969Z,101841.25
2023-05-16T03:08:03.082Z,101839.88
2023-05-16T03:10:30.811Z,101837.94
2023-05-16T03:12:58.478Z,101836.28
2023-05-16T03:15:26.863Z,101831.81
2023-05-16T03:17:54.874Z,101835.22
2023-05-16T03:20:22.759Z,101834.75
2023-05-16T03:22:50.437Z,101835.38
2023-05-16T03:25:19.657Z,101844.75
2023-05-16T03:27:47.391Z,101840.72
2023-05-16T03:30:15.673Z,101838.25
2023-05-16T03:32:43.480Z,101842.16
2023-05-16T03:35:12.010Z,101843.34
2023-05-16T03:37:40.260Z,101835.63
2023-05-16T03:40:09.795Z,101845.88
2023-05-16T03:42:38.823Z,101841.75
2023-05-16T03:45:08.019Z,101841.91
2023-05-16T03:47:35.946Z,101839.75
2023-05-16T03:50:03.860Z,101841.72
2023-05-16T03:52:31.626Z,101845.38
2023-05-16T03:54:59.333Z,101853.50
2023-05-16T03:57:27.475Z,101844.72
2023-05-16T03:59:56.694Z,101847.16
2023-05-16T04:02:24.649Z,101842.81
2023-05-16T04:04:52.647Z,101848.84
2023-05-16T04:07:22.441Z,101849.69
2023-05-16T04:09:52.756Z,101851.72
2023-05-16T04:12:20.570Z,101844.72
2023-05-16T04:14:48.375Z,101847.53
2023-05-16T04:17:17.722Z,101849.47
2023-05-16T04:19:45.515Z,101835.75
2023-05-16T04:22:13.193Z,101848.38
2023-05-16T04:24:41.052Z,101853.56
2023-05-16T04:27:09.456Z,101859.16
2023-05-16T04:29:37.395Z,101850.22
2023-05-16T04:32:07.494Z,101849.31
2023-05-16T04:34:39.798Z,101853.84
2023-05-16T04:37:09.570Z,101846.78
2023-05-16T04:39:37.326Z,101853.06
2023-05-16T04:42:05.684Z,101861.78
2023-05-16T04:44:34.503Z,101853.84
2023-05-16T04:47:02.315Z,101856.75
2023-05-16T04:49:30.016Z,101862.78
2023-05-16T04:51:59.461Z,101862.66
2023-05-16T04:54:27.456Z,101860.03
2023-05-16T04:56:55.204Z,101864.19
2023-05-16T04:59:23.076Z,101868.19
2023-05-16T05:01:50.897Z,101870.31
2023-05-16T05:04:18.826Z,101870.94
2023-05-16T05:06:46.665Z,101863.00
2023-05-16T05:09:16.136Z,101866.03
2023-05-16T05:11:43.882Z,101867.44
2023-05-16T05:14:11.590Z,101872.09
2023-05-16T05:16:39.441Z,101873.03
2023-05-16T05:19:08.873Z,101866.88
2023-05-16T05:21:36.672Z,101871.91
2023-05-16T05:24:04.427Z,101871.06
2023-05-16T05:26:33.551Z,101877.56
2023-05-16T05:29:05.847Z,101869.94
2023-05-16T05:31:34.898Z,101871.25
2023-05-16T05:34:03.278Z,101878.91
2023-05-16T05:36:31.024Z,101874.94
2023-05-16T05:38:58.896Z,101881.44
2023-05-16T05:41:27.346Z,101878.31
2023-05-16T05:43:56.431Z,101889.75
2023-05-16T05:46:26.330Z,101894.38
2023-05-16T05:48:54.222Z,101890.22
2023-05-16T05:51:22.045Z,101898.59
2023-05-16T05:53:50.044Z,101887.25
2023-05-16T05:56:17.816Z,101893.19
2023-05-16T05:58:45.839Z,101902.63
2023-05-16T06:01:14.907Z,101909.66
2023-05-16T06:03:42.919Z,101914.25
2023-05-16T06:06:10.985Z,101916.47
2023-05-16T06:08:38.646Z,101912.72
2023-05-16T06:11:06.692Z,101911.78
2023-05-16T06:13:34.449Z,101909.25
2023-05-16T06:16:02.204Z,101915.06
2023-05-16T06:18:31.404Z,101918.00
2023-05-16T06:20:59.129Z,101918.91
2023-05-16T06:23:27.178Z,101922.88
2023-05-16T06:25:54.968Z,101922.19
2023-05-16T06:28:23.919Z,101920.63
2023-05-16T06:30:52.193Z,101916.50
2023-05-16T06:33:20.279Z,101928.06
2023-05-16T06:35:49.651Z,101926.31
2023-05-16T06:38:17.551Z,101926.88
2023-05-16T06:40:45.415Z,101931.75
2023-05-16T06:43:13.178Z,101931.13
2023-05-16T06:45:40.978Z,101930.00
2023-05-16T06:48:09.621Z,101935.19
2023-05-16T06:50:37.465Z,101939.59
2023-05-16T06:53:07.379Z,101942.47
2023-05-16T06:55:35.176Z,101941.47
2023-05-16T06:58:02.957Z,101942.59
2023-05-16T07:00:30.722Z,101946.13
2023-05-16T07:02:58.672Z,101945.91
2023-05-16T07:05:26.788Z,101953.44
2023-05-16T07:07:54.703Z,101949.81
2023-05-16T07:10:24.189Z,101946.81
2023-05-16T07:12:51.891Z,101947.50
2023-05-16T07:15:20.307Z,101958.25
2023-05-16T07:17:48.189Z,101958.34
2023-05-16T07:20:16.005Z,101960.59
2023-05-16T07:22:43.787Z,101961.09
2023-05-16T07:25:12.918Z,101973.38
2023-05-16T07:27:44.624Z,101970.69
2023-05-16T07:30:13.843Z,101967.44
2023-05-16T07:32:42.637Z,101972.41
2023-05-16T07:35:11.118Z,101971.69
2023-05-16T07:37:41.463Z,101972.81
2023-05-16T07:40:10.452Z,101967.84
2023-05-16T07:42:38.232Z,101973.72
2023-05-16T07:45:08.598Z,101974.72
2023-05-16T07:47:36.609Z,101967.13
2023-05-16T07:50:04.596Z,101972.13
2023-05-16T07:52:32.389Z,101969.94
2023-05-16T07:55:00.419Z,101983.81
2023-05-16T07:57:28.461Z,101974.75
2023-05-16T07:59:56.661Z,101980.31
2023-05-16T08:02:30.493Z,101980.38
2023-05-16T08:04:58.712Z,101985.63
2023-05-16T08:07:26.959Z,101982.47
2023-05-16T08:09:54.659Z,101975.66
2023-05-16T08:12:22.467Z,101978.91
2023-05-16T08:14:50.246Z,101977.31
2023-05-16T08:17:18.017Z,101982.25
2023-05-16T08:19:47.359Z,101985.81
2023-05-16T08:22:15.113Z,101980.81
2023-05-16T08:24:42.863Z,101985.25
2023-05-16T08:27:12.086Z,101979.72
2023-05-16T08:29:39.878Z,101982.72
2023-05-16T08:32:09.730Z,101973.00
2023-05-16T08:34:37.790Z,101977.47
2023-05-16T08:37:07.030Z,101975.38
2023-05-16T08:39:34.917Z,101986.34
2023-05-16T08:42:02.788Z,101981.72
2023-05-16T08:44:30.694Z,101974.06
2023-05-16T08:46:58.886Z,101969.72
2023-05-16T08:49:28.799Z,101972.34
2023-05-16T08:51:59.317Z,101972.34
2023-05-16T08:54:28.725Z,101970.91
2023-05-16T08:56:58.695Z,101969.25
2023-05-16T08:59:26.614Z,101971.06
2023-05-16T09:01:54.365Z,101973.25
2023-05-16T09:04:22.480Z,101972.59
2023-05-16T09:06:52.270Z,101971.91
2023-05-16T09:09:20.108Z,101971.56
2023-05-16T09:11:49.390Z,101971.03
2023-05-16T09:14:17.836Z,101965.84
2023-05-16T09:19:14.677Z,101975.34
2023-05-16T09:21:43.470Z,101965.94
2023-05-16T09:24:11.424Z,101971.00
2023-05-16T09:26:40.186Z,101962.53
2023-05-16T09:29:13.498Z,101957.75
2023-05-16T09:31:41.454Z,101962.63
2023-05-16T09:34:11.335Z,101957.31
2023-05-16T09:36:41.010Z,101961.22
2023-05-16T09:39:09.938Z,101962.66
2023-05-16T09:41:37.721Z,101963.75
2023-05-16T09:44:06.808Z,101970.69
2023-05-16T09:46:38.470Z,101956.53
2023-05-16T09:49:06.565Z,101957.22
2023-05-16T09:51:34.505Z,101958.91
2023-05-16T09:54:02.251Z,101959.38
2023-05-16T09:56:30.674Z,101970.25
2023-05-16T09:58:58.513Z,101962.38
2023-05-16T10:01:26.974Z,101963.44
2023-05-16T10:03:56.435Z,101966.13
2023-05-16T10:06:25.107Z,101956.09
2023-05-16T10:08:53.024Z,101951.34
2023-05-16T10:11:21.708Z,101960.41
2023-05-16T10:13:53.376Z,101955.34
2023-05-16T10:16:23.623Z,101956.13
2023-05-16T10:18:52.281Z,101960.16
2023-05-16T10:21:24.588Z,101947.09
2023-05-16T10:23:53.663Z,101954.25
2023-05-16T10:26:21.932Z,101950.28
2023-05-16T10:28:50.007Z,101951.88
2023-05-16T10:31:18.230Z,101955.50
2023-05-16T10:33:46.938Z,101946.34
2023-05-16T10:36:15.660Z,101952.41
2023-05-16T10:38:46.720Z,101950.22
2023-05-16T10:41:15.099Z,101947.25
2023-05-16T10:43:46.630Z,101943.09
2023-05-16T10:46:15.702Z,101949.06
2023-05-16T10:48:43.698Z,101941.63
2023-05-16T10:51:37.442Z,101948.03
2023-05-16T10:54:10.809Z,101951.03
2023-05-16T10:56:39.142Z,101944.16
2023-05-16T10:59:24.577Z,101940.94
2023-05-16T11:01:54.627Z,101941.44
2023-05-16T11:04:22.546Z,101936.97
2023-05-16T11:06:54.779Z,101935.88
2023-05-16T11:09:27.609Z,101936.53
2023-05-16T11:11:57.305Z,101937.94
2023-05-16T11:14:28.852Z,101936.34
2023-05-16T11:17:03.224Z,101936.22
2023-05-16T11:19:36.212Z,101928.66
2023-05-16T11:22:23.236Z,101924.78
2023-05-16T11:24:58.199Z,101936.53
2023-05-16T11:27:28.971Z,101934.69
2023-05-16T11:30:03.257Z,101938.06
2023-05-16T11:32:33.096Z,101930.53
2023-05-16T11:35:01.204Z,101933.38
2023-05-16T11:37:29.397Z,101938.81
2023-05-16T11:40:02.196Z,101936.56
2023-05-16T11:42:33.934Z,101938.06
2023-05-16T11:45:08.916Z,101940.50
2023-05-16T11:47:41.293Z,101938.72
2023-05-16T11:50:13.851Z,101932.81
2023-05-16T11:52:44.520Z,101937.28
2023-05-16T11:55:21.528Z,101938.50
2023-05-16T11:57:58.140Z,101930.66
2023-05-16T12:00:27.592Z,101920.72
2023-05-16T12:03:02.901Z,101915.38
2023-05-16T12:05:32.733Z,101912.75
2023-05-16T12:08:01.030Z,101911.25
2023-05-16T12:10:34.185Z,101914.84
2023-05-16T12:13:03.331Z,101915.53
2023-05-16T12:15:31.636Z,101913.78
2023-05-16T12:17:59.864Z,101910.47
2023-05-16T12:20:27.997Z,101913.47
2023-05-16T12:22:58.957Z,101910.16
2023-05-16T12:25:28.948Z,101909.03
2023-05-16T12:27:59.647Z,101905.09
2023-05-16T12:30:29.435Z,101900.13
2023-05-16T12:32:58.546Z,101898.34
2023-05-16T12:35:27.358Z,101911.28
2023-05-16T12:37:56.151Z,101907.59
2023-05-16T12:40:24.168Z,101912.97
2023-05-16T12:42:52.632Z,101912.28
2023-05-16T12:45:23.397Z,101908.91
2023-05-16T12:47:51.590Z,101912.38
2023-05-16T12:50:19.418Z,101920.72
2023-05-16T12:52:51.653Z,101912.03
2023-05-16T12:55:20.407Z,101914.38
2023-05-16T12:57:49.199Z,101914.94
2023-05-16T13:00:21.306Z,101911.41
2023-05-16T13:02:50.756Z,101908.03
2023-05-16T13:05:18.843Z,101905.38
2023-05-16T13:07:46.725Z,101912.66
2023-05-16T13:10:14.470Z,101918.34
2023-05-16T13:12:42.659Z,101911.34
2023-05-16T13:15:12.899Z,101910.22
2023-05-16T13:17:43.981Z,101913.56
2023-05-16T13:20:15.033Z,101905.38
2023-05-16T13:22:43.688Z,101915.00
2023-05-16T13:25:12.299Z,101907.16
2023-05-16T13:27:40.181Z,101914.50
2023-05-16T13:30:09.220Z,101911.34
2023-05-16T13:32:37.070Z,101908.25
2023-05-16T13:35:05.996Z,101915.47
2023-05-16T13:37:35.348Z,101899.59
2023-05-16T13:40:03.562Z,101896.75
2023-05-16T13:42:31.402Z,101903.31
2023-05-16T13:45:01.470Z,101900.63
2023-05-16T13:47:29.683Z,101908.31
2023-05-16T13:49:57.431Z,101902.03
2023-05-16T13:52:25.186Z,101898.22
2023-05-16T13:54:54.375Z,101901.72
2023-05-16T13:57:23.151Z,101897.59
2023-05-16T14:02:21.792Z,101890.41
2023-05-16T14:04:50.042Z,101892.66
2023-05-16T14:07:18.031Z,101899.44
2023-05-16T14:09:45.864Z,101899.38
2023-05-16T14:12:14.972Z,101901.38
2023-05-16T14:14:42.751Z,101897.31
2023-05-16T14:17:10.564Z,101892.28
2023-05-16T14:19:38.391Z,101898.06
2023-05-16T14:22:06.594Z,101893.00
2023-05-16T14:24:34.834Z,101895.50
2023-05-16T14:27:03.338Z,101891.00
2023-05-16T14:29:32.787Z,101891.63
2023-05-16T14:32:00.696Z,101900.41
2023-05-16T14:34:28.488Z,101900.47
2023-05-16T14:36:56.193Z,101901.94
2023-05-16T14:39:24.070Z,101893.59
2023-05-16T14:41:51.794Z,101898.06
2023-05-16T14:44:21.650Z,101902.38
2023-05-16T14:46:51.739Z,101900.50
2023-05-16T14:49:19.625Z,101900.28
2023-05-16T14:51:49.305Z,101900.72
2023-05-16T14:54:17.377Z,101898.69
2023-05-16T14:56:46.099Z,101888.97
2023-05-16T14:59:14.274Z,101894.09
2023-05-16T15:01:42.138Z,101885.47
2023-05-16T15:04:11.407Z,101894.75
2023-05-16T15:06:39.159Z,101892.09
2023-05-16T15:09:07.073Z,101900.44
2023-05-16T15:11:34.811Z,101900.94
2023-05-16T15:14:02.682Z,101903.59
2023-05-16T15:16:31.109Z,101894.66
2023-05-16T15:18:58.933Z,101892.94
2023-05-16T15:21:28.192Z,101892.28
2023-05-16T15:23:57.754Z,101889.63
2023-05-16T15:26:25.506Z,101895.06
2023-05-16T15:28:55.420Z,101898.53
2023-05-16T15:31:23.682Z,101900.13
2023-05-16T15:33:51.498Z,101898.50
2023-05-16T15:36:19.263Z,101916.22
2023-05-16T15:38:48.372Z,101898.22
2023-05-16T15:41:32.000Z,101899.69
2023-05-16T15:44:04.082Z,101897.13
2023-05-16T15:46:32.998Z,101901.22
2023-05-16T15:49:00.997Z,101902.81
2023-05-16T15:51:28.761Z,101898.13
2023-05-16T15:53:57.848Z,101900.59
2023-05-16T15:56:25.782Z,101905.88
2023-05-16T15:58:56.166Z,101894.72
2023-05-16T16:01:23.986Z,101885.75
2023-05-16T16:03:51.881Z,101897.88
2023-05-16T16:06:19.925Z,101900.06
2023-05-16T16:08:47.861Z,101897.38
2023-05-16T16:11:17.014Z,101901.34
2023-05-16T16:13:44.736Z,101909.09
2023-05-16T16:16:12.613Z,101904.06
2023-05-16T16:18:40.410Z,101902.63
2023-05-16T16:21:08.566Z,101898.78
2023-05-16T16:23:36.351Z,101903.94
2023-05-16T16:26:04.270Z,101914.22
2023-05-16T16:28:33.567Z,101916.31
2023-05-16T16:31:01.383Z,101912.66
2023-05-16T16:33:29.131Z,101909.53
2023-05-16T16:35:56.880Z,101921.59
2023-05-16T16:38:24.661Z,101920.88
2023-05-16T16:40:52.454Z,101917.78
2023-05-16T16:43:20.190Z,101919.56
2023-05-16T16:45:49.656Z,101910.53
2023-05-16T16:48:17.550Z,101916.34
2023-05-16T16:50:45.357Z,101927.75
2023-05-16T16:53:13.301Z,101921.25
2023-05-16T16:55:41.255Z,101918.00
2023-05-16T16:58:09.033Z,101920.00
2023-05-16T17:00:36.868Z,101920.69
2023-05-16T17:03:06.306Z,101916.56
2023-05-16T17:05:34.117Z,101918.47
2023-05-16T17:08:01.836Z,101917.50
2023-05-16T17:10:30.218Z,101921.59
2023-05-16T17:13:02.974Z,101926.19
2023-05-16T17:15:30.846Z,101914.13
2023-05-16T17:17:58.748Z,101918.84
2023-05-16T17:20:27.925Z,101923.72
2023-05-16T17:22:55.811Z,101918.97
2023-05-16T17:25:23.595Z,101926.66
2023-05-16T17:27:51.334Z,101923.22
2023-05-16T17:30:19.121Z,101920.88
2023-05-16T17:32:46.960Z,101920.53
2023-05-16T17:35:15.161Z,101920.28
2023-05-16T17:37:44.305Z,101923.56
2023-05-16T17:40:17.022Z,101927.84
2023-05-16T17:42:45.827Z,101915.75
2023-05-16T17:45:14.869Z,101934.38
2023-05-16T17:47:43.245Z,101936.72
2023-05-16T17:50:11.880Z,101935.63
2023-05-16T17:52:40.109Z,101931.16
2023-05-16T17:55:10.694Z,101933.31
2023-05-16T17:57:38.904Z,101937.31
2023-05-16T18:00:07.906Z,101928.59
2023-05-16T18:02:38.406Z,101935.03
2023-05-16T18:05:07.713Z,101939.09
2023-05-16T18:07:35.588Z,101940.47
2023-05-16T18:10:03.593Z,101944.09
2023-05-16T18:12:32.706Z,101937.47
2023-05-16T18:15:00.516Z,101950.75
2023-05-16T18:17:28.704Z,101937.00
2023-05-16T18:19:56.651Z,101937.78
2023-05-16T18:22:24.569Z,101940.50
2023-05-16T18:24:52.354Z,101934.63
2023-05-16T18:27:20.108Z,101938.03
2023-05-16T18:29:49.214Z,101942.09
2023-05-16T18:32:17.018Z,101940.38
2023-05-16T18:34:44.754Z,101947.38
2023-05-16T18:37:12.463Z,101946.72
2023-05-16T18:39:41.588Z,101948.44
2023-05-16T18:42:09.707Z,101955.69
2023-05-16T18:44:37.749Z,101959.34
2023-05-16T18:47:07.710Z,101954.28
2023-05-16T18:49:38.992Z,101957.06
2023-05-16T18:52:08.391Z,101956.53
2023-05-16T18:54:36.872Z,101959.44
2023-05-16T18:57:05.402Z,101964.09
2023-05-16T18:59:33.876Z,101977.41
2023-05-16T19:02:01.885Z,101971.06
2023-05-16T19:04:31.248Z,101978.19
2023-05-16T19:06:59.487Z,101982.72
2023-05-16T19:09:28.034Z,101972.56
2023-05-16T19:11:56.679Z,101982.34
2023-05-16T19:14:24.501Z,101987.38
2023-05-16T19:16:52.414Z,101994.56
2023-05-16T19:19:21.003Z,101990.84
2023-05-16T19:21:50.255Z,101994.03
2023-05-16T19:24:18.199Z,101993.75
2023-05-16T19:26:46.078Z,101997.97
2023-05-16T19:29:13.908Z,101989.81
2023-05-16T19:31:41.681Z,102002.09
2023-05-16T19:34:11.182Z,102002.00
2023-05-16T19:36:38.997Z,101997.22
2023-05-16T19:39:08.089Z,102011.69
2023-05-16T19:41:36.664Z,102000.63
2023-05-16T19:44:04.637Z,102006.28
2023-05-16T19:46:32.359Z,102006.84
2023-05-16T19:49:00.196Z,102016.41
2023-05-16T19:51:40.692Z,102019.94
2023-05-16T19:54:10.770Z,102020.50
2023-05-16T19:56:38.543Z,102031.63
2023-05-16T19:59:06.288Z,102029.31
2023-05-16T20:01:34.091Z,102032.81
2023-05-16T20:04:02.519Z,102038.78
2023-05-16T20:06:31.535Z,102042.66
2023-05-16T20:08:59.302Z,102038.84
2023-05-16T20:11:28.436Z,102036.16
2023-05-16T20:13:59.438Z,102038.97
2023-05-16T20:16:27.707Z,102049.50
2023-05-16T20:18:55.576Z,102055.06
2023-05-16T20:21:23.450Z,102057.22
2023-05-16T20:23:51.223Z,102059.84
2023-05-16T20:26:19.000Z,102053.69
2023-05-16T20:28:48.154Z,102055.34
2023-05-16T20:31:15.965Z,102058.63
2023-05-16T20:33:43.868Z,102052.06
2023-05-16T20:36:11.693Z,102051.47
2023-05-16T20:38:39.515Z,102061.50
2023-05-16T20:41:07.300Z,102065.28
2023-05-16T20:43:35.070Z,102067.03
2023-05-16T20:46:04.324Z,102069.50
2023-05-16T20:48:32.443Z,102073.25
2023-05-16T20:51:01.295Z,102075.13
2023-05-16T20:53:29.452Z,102079.88
2023-05-16T20:55:57.227Z,102077.38
2023-05-16T20:58:24.995Z,102081.13
2023-05-16T21:00:52.742Z,102084.28
2023-05-16T21:03:22.115Z,102083.47
2023-05-16T21:05:50.110Z,102087.00
2023-05-16T21:08:17.926Z,102087.63
2023-05-16T21:10:45.650Z,102086.19
2023-05-16T21:13:13.436Z,102089.47
2023-05-16T21:15:41.250Z,102085.03
2023-05-16T21:18:09.128Z,102091.72
2023-05-16T21:20:38.435Z,102092.09
2023-05-16T21:23:06.185Z,102091.97
2023-05-16T21:25:33.917Z,102097.31
2023-05-16T21:28:01.696Z,102102.94
2023-05-16T21:30:29.472Z,102110.09
2023-05-16T21:32:57.240Z,102102.97
2023-05-16T21:35:25.329Z,102102.00
2023-05-16T21:37:54.526Z,102098.91
2023-05-16T21:40:24.981Z,102105.66
2023-05-16T21:42:53.245Z,102106.84
2023-05-16T21:45:21.631Z,102106.34
2023-05-16T21:47:49.583Z,102110.41
2023-05-16T21:50:18.232Z,102109.44
2023-05-16T21:52:46.141Z,102112.91
2023-05-16T21:55:15.309Z,102115.00
2023-05-16T21:57:43.166Z,102121.56
2023-05-16T22:00:12.630Z,102116.00
2023-05-16T22:02:40.458Z,102128.38
2023-05-16T22:05:09.409Z,102118.47
2023-05-16T22:07:37.607Z,102128.88
2023-05-16T22:10:07.397Z,102125.53
2023-05-16T22:12:36.587Z,102123.44
2023-05-16T22:15:05.300Z,102119.94
2023-05-16T22:17:33.189Z,102128.38
2023-05-16T22:20:02.277Z,102131.47
2023-05-16T22:22:30.087Z,102140.22
2023-05-16T22:24:57.826Z,102136.25
2023-05-16T22:27:25.746Z,102141.56
2023-05-16T22:29:54.882Z,102131.97
2023-05-16T22:32:22.893Z,102137.06
2023-05-16T22:34:50.758Z,102141.72
2023-05-16T22:37:18.569Z,102143.63
2023-05-16T22:39:46.346Z,102145.75
2023-05-16T22:42:14.058Z,102135.50
2023-05-16T22:44:41.769Z,102151.47
2023-05-16T22:47:11.024Z,102143.22
2023-05-16T22:49:38.806Z,102147.19
2023-05-16T22:52:06.946Z,102152.78
2023-05-16T22:54:34.672Z,102146.72
2023-05-16T22:57:02.425Z,102146.91
2023-05-16T22:59:30.522Z,102149.16
2023-05-16T23:01:58.332Z,102147.59
2023-05-16T23:04:27.505Z,102150.03
2023-05-16T23:06:55.248Z,102155.81
2023-05-16T23:09:23.171Z,102158.00
2023-05-16T23:11:51.244Z,102151.94
2023-05-16T23:14:18.981Z,102152.06
2023-05-16T23:16:46.714Z,102161.28
2023-05-16T23:19:14.619Z,102157.09
2023-05-16T23:21:44.545Z,102146.50
2023-05-16T23:24:12.300Z,102148.91
2023-05-16T23:26:40.036Z,102157.41
2023-05-16T23:29:07.887Z,102155.66
2023-05-16T23:31:35.727Z,102155.28
2023-05-16T23:34:03.539Z,102154.31
2023-05-16T23:36:31.406Z,102153.00
2023-05-16T23:39:00.660Z,102159.50
2023-05-16T23:41:28.441Z,102157.34
2023-05-16T23:43:56.244Z,102151.75
2023-05-16T23:46:23.971Z,102153.31
2023-05-16T23:48:51.730Z,102151.38
2023-05-16T23:51:19.575Z,102156.91
2023-05-16T23:53:47.309Z,102154.72
2023-05-16T23:56:16.386Z,102151.88
2023-05-16T23:58:44.168Z,102152.66
